Spiritwood Lake, North Dakota
Current Conditions -  °F | °C
As of 1:16 PM on Thursday 30 Oct 2014 (Local Time) from KJMS Reporting Station
Overcast Overcast  
Wind Chill: 26°   Ceiling: 1500
Heat Index: 36°   Visibility: 10mi
Dew Point: 30°   Wind: 18mph
Humidity: 79%   Direction: 360°N
Pressure: 30.34"   Gusts: 25mph
Location:  46.8494°N, 98.7424°W
Report Text: KJMS 301816Z AUTO 36016G22KT 10SM OVC015 02/M01 A3034 RMK AO2 T00221011
Loading
Personal Weather Stations






























Interactive Weather Map
Tropical Storm Tracking
New forecast layout! Learn more

10-Day Weather Forecast

Advertisements
Track Severe Weather on mobile